LIME/BGY METAR and TAF weather

Enter ICAO airport designator
Station Type Date Time Source
LIME METAR 2018/12/17 17:20 UTC NOAA

LIME 171720Z VRB01KT 4000 BR NSC 01/00 Q1023 NOSIG


Station Type Date Time Source
LIME Decoded METAR 2018/12/17 17:20 UTC NOAA

Bergamo / Orio Al Serio, Italy (LIME) 45-40N 009-42E 237M
Dec 17, 2018 - 12:20 PM EST / 2018.12.17 1720 UTC
Wind: Variable at 1 MPH (1 KT):0
Visibility: 2 mile(s):0
Weather: mist
Temperature: 33 F (1 C)
Dew Point: 32 F (0 C)
Relative Humidity: 93%
Pressure (altimeter): 30.21 in. Hg (1023 hPa)
ob: LIME 171720Z VRB01KT 4000 BR NSC 01/00 Q1023 NOSIG
cycle: 17

Station Type Date Time Source
LIME TAF 2018/12/17 18:21 UTC NOAA

TAF LIME 171700Z 1718/1818 VRB05KT 3000 BR NSC PROB40
TEMPO 1803/1808 0800 BCFG


Example: see airport list